Time;durP1;ratioP1;P1;durP2;ratioP2;P2;SDS_P1;SDS_P2;PMS_P1;PMS_P2;Temp;Humidity;BMP_temperature;BMP_pressure;BME280_temperature;BME280_humidity;BME280_pressure;Samples;Min_cycle;Max_cycle;Signal;HPM_P1;HPM_P2
2021/07/25 00:02:17;;;;;;;;;;;;;;;;;;;;;
2021/07/25 00:05:13;;;;;;;2.13;1.50;;;;;;;18.12;81.13;92285.66;4854295;29;20049;-94
2021/07/25 00:08:15;;;;;;;;;;;;;;;;;;;;;
2021/07/25 00:11:10;;;;;;;1.17;0.75;;;;;;;18.27;80.88;92311.44;4853706;29;20053;-94
2021/07/25 00:14:24;;;;;;;;;;;;;;;;;;;;;
2021/07/25 00:20:15;;;;;;;1.48;1.13;;;;;;;18.33;80.62;92319.91;4855577;29;20057;-94
2021/07/25 00:23:01;;;;;;;;;;;;;;;18.35;80.58;92331.75;4847691;29;20046;-96
2021/07/25 00:25:56;;;;;;;2.03;1.52;;;;;;;18.07;80.80;92289.34;4845722;29;20029;-95
2021/07/25 00:28:55;;;;;;;2.30;1.60;;;;;;;18.14;81.19;92296.69;4844973;29;20164;-95
2021/07/25 00:32:21;;;;;;;0.60;0.60;;;;;;;18.01;81.08;92277.44;4861890;29;20053;-94
2021/07/25 00:35:00;;;;;;;1.80;0.90;;;;;;;17.98;81.52;92280.75;4836241;29;20484;-95
2021/07/25 00:41:07;;;;;;;0.70;0.70;;;;;;;18.15;81.70;92306.19;4880221;29;20045;-94
2021/07/25 00:44:19;;;;;;;1.15;0.98;;;;;;;18.04;81.86;92290.00;4850890;29;20049;-94
2021/07/25 00:47:07;;;;;;;1.35;0.88;;;;;;;18.25;81.75;92321.59;4869443;29;20045;-95
2021/07/25 00:50:01;;;;;;;3.60;1.25;;;;;;;18.26;81.81;92317.84;4841087;29;20147;-94
2021/07/25 00:52:56;;;;;;;3.60;1.33;;;;;;;17.91;81.95;92267.34;4846287;29;20056;-94
2021/07/25 00:56:00;;;;;;;0.43;0.43;;;;;;;17.97;81.99;92266.75;4865004;29;20049;-94
2021/07/25 00:58:58;;;;;;;1.00;0.85;;;;;;;18.03;82.18;92272.56;4870529;29;20121;-94
2021/07/25 01:01:47;;;;;;;0.77;0.70;;;;;;;18.08;82.42;92280.25;4837662;29;20117;-95
2021/07/25 01:04:41;;;;;;;1.63;1.30;;;;;;;18.23;82.25;92300.75;4864028;29;20584;-95
2021/07/25 01:10:34;;;;;;;1.02;0.95;;;;;;;17.88;82.46;92245.72;4861558;29;20047;-95
2021/07/25 01:19:56;;;;;;;1.02;0.70;;;;;;;18.00;82.07;92252.84;4852272;29;20057;-94
2021/07/25 01:22:41;;;;;;;2.30;1.33;;;;;;;17.99;82.34;92250.50;4865695;29;20209;-95
2021/07/25 01:25:32;;;;;;;0.93;0.88;;;;;;;17.93;82.27;92231.47;4858044;29;20045;-93
2021/07/25 01:28:30;;;;;;;;;;;;;;;;;;;;;
2021/07/25 01:31:39;;;;;;;0.65;0.60;;;;;;;18.16;82.33;92260.06;4865175;29;20046;-95
2021/07/25 01:34:34;;;;;;;;;;;;;;;;;;;;;
2021/07/25 01:37:07;;;;;;;1.38;1.00;;;;;;;18.49;83.14;92267.72;4863415;29;20061;-94
2021/07/25 01:40:35;;;;;;;;;;;;;;;;;;;;;
2021/07/25 01:43:33;;;;;;;2.50;1.45;;;;;;;18.46;82.60;92244.53;4874673;29;20045;-95
2021/07/25 01:46:26;;;;;;;;;;;;;;;;;;;;;
2021/07/25 01:49:02;;;;;;;1.02;0.75;;;;;;;18.29;82.60;92237.69;4845482;29;20076;-93
2021/07/25 01:52:00;;;;;;;1.80;1.30;;;;;;;18.25;82.29;92242.13;4851585;29;20077;-95
2021/07/25 01:55:13;;;;;;;1.75;1.30;;;;;;;18.51;82.57;92284.06;4835293;29;20076;-94
2021/07/25 02:01:17;;;;;;;;;;;;;;;;;;;;;
2021/07/25 02:04:24;;;;;;;0.90;0.75;;;;;;;18.23;83.93;92261.00;4857236;29;20178;-95
2021/07/25 02:07:17;;;;;;;0.90;0.68;;;;;;;18.08;83.46;92235.25;4869384;29;20049;-94
2021/07/25 02:10:04;;;;;;;2.17;1.27;;;;;;;18.20;83.45;92261.69;4866414;29;20060;-94
2021/07/25 02:13:07;;;;;;;1.88;1.27;;;;;;;18.35;83.47;92277.94;4833629;29;20117;-95
2021/07/25 02:15:57;;;;;;;;;;;;;;;;;;;;;
2021/07/25 02:18:38;;;;;;;4.90;1.77;;;;;;;18.04;83.59;92237.81;4849230;29;20105;-95
2021/07/25 02:21:40;;;;;;;1.52;1.20;;;;;;;18.20;84.52;92255.63;4848303;29;20046;-94
2021/07/25 02:24:42;;;;;;;2.25;1.60;;;;;;;18.06;84.04;92229.53;4857729;29;20462;-95
2021/07/25 02:27:39;;;;;;;2.63;1.50;;;;;;;18.16;84.51;92244.16;4854451;29;20084;-94
2021/07/25 02:30:40;;;;;;;1.77;1.20;;;;;;;18.09;84.47;92237.56;4861078;29;20047;-94
2021/07/25 02:33:27;;;;;;;2.40;1.10;;;;;;;18.26;84.52;92260.34;4831778;29;20089;-95
2021/07/25 02:36:29;;;;;;;;;;;;;;;;;;;;;
2021/07/25 02:39:46;;;;;;;3.35;1.92;;;;;;;18.19;85.10;92243.47;4868485;29;20056;-95
2021/07/25 02:42:44;;;;;;;;;;;;;;;;;;;;;
2021/07/25 02:45:43;;;;;;;1.88;1.48;;;;;;;18.09;86.02;92216.38;4866774;29;20060;-95
2021/07/25 02:48:14;;;;;;;2.63;1.33;;;;;;;18.13;85.90;92211.19;4865866;29;20079;-95
2021/07/25 02:50:47;;;;;;;1.88;1.67;;;;;;;18.18;85.55;92221.53;4852637;29;20052;-95
2021/07/25 02:53:43;;;;;;;;;;;;;;;;;;;;;
2021/07/25 02:57:06;;;;;;;;;;;;;;;;;;;;;
2021/07/25 03:00:13;;;;;;;2.47;1.13;;;;;;;18.73;82.16;92209.25;4894914;29;20059;-93
2021/07/25 03:03:11;;;;;;;2.55;1.25;;;;;;;18.78;82.31;92213.56;4867422;29;20144;-95
2021/07/25 03:06:23;;;;;;;;;;;;;;;;;;;;;
2021/07/25 03:09:30;;;;;;;1.42;1.05;;;;;;;18.91;82.97;92249.47;4883158;29;20049;-95
2021/07/25 03:12:44;;;;;;;;;;;;;;;;;;;;;
2021/07/25 03:15:46;;;;;;;1.33;0.80;;;;;;;18.72;81.30;92209.59;4886419;29;20538;-95
2021/07/25 03:18:29;;;;;;;2.40;1.63;;;;;;;19.32;78.92;92259.88;4869870;29;20057;-94
2021/07/25 03:21:06;;;;;;;1.50;1.00;;;;;;;18.91;78.96;92206.25;4865623;29;20064;-94
2021/07/25 03:23:54;;;;;;;1.98;1.48;;;;;;;18.95;77.67;92206.34;4853344;29;20121;-92
2021/07/25 03:26:29;;;;;;;0.90;0.75;;;;;;;19.07;77.32;92214.19;4873812;29;20037;-94
2021/07/25 03:29:10;;;;;;;2.67;1.30;;;;;;;18.96;77.48;92206.00;4870488;29;20098;-94
2021/07/25 03:31:48;;;;;;;2.17;1.83;;;;;;;19.07;77.79;92222.94;4863366;29;20483;-95
2021/07/25 03:34:31;;;;;;;;;;;;;;;;;;;;;
2021/07/25 03:37:05;;;;;;;1.30;1.20;;;;;;;18.99;77.21;92215.16;4881967;29;20147;-93
2021/07/25 03:39:51;;;;;;;;;;;;;;;;;;;;;
2021/07/25 03:42:27;;;;;;;1.90;1.40;;;;;;;18.87;76.93;92200.13;4853658;29;20059;-94
2021/07/25 03:45:22;;;;;;;;;;;;;;;;;;;;;
2021/07/25 03:48:17;;;;;;;1.65;0.90;;;;;;;18.81;76.88;92202.25;4868493;29;20078;-94
2021/07/25 03:51:04;;;;;;;1.30;0.80;;;;;;;19.04;77.70;92236.88;4865097;29;20040;-94
2021/07/25 03:53:35;;;;;;;1.10;0.85;;;;;;;18.86;77.35;92202.00;4865927;29;20075;-94
2021/07/25 03:56:51;;;;;;;;;;;;;;;;;;;;;
2021/07/25 03:59:41;;;;;;;1.52;0.80;;;;;;;18.79;78.28;92201.81;4880711;29;20092;-95
2021/07/25 04:02:15;;;;;;;1.30;1.05;;;;;;;18.88;77.23;92199.75;4871987;29;20064;-94
2021/07/25 04:05:01;;;;;;;2.60;1.67;;;;;;;18.97;77.83;92225.34;4885117;29;20048;-93
2021/07/25 04:07:56;;;;;;;0.70;0.70;;;;;;;18.82;78.14;92222.34;4870417;29;20462;-94
2021/07/25 04:10:52;;;;;;;3.05;1.33;;;;;;;18.80;78.59;92229.91;4871421;29;20048;-94
2021/07/25 04:13:33;;;;;;;1.42;1.27;;;;;;;19.10;79.25;92267.34;4858571;29;20057;-94
2021/07/25 04:19:08;;;;;;;3.47;1.15;;;;;;;18.81;78.22;92201.50;4862218;29;20624;-95
2021/07/25 04:21:52;;;;;;;2.75;1.92;;;;;;;18.80;77.87;92203.38;4868641;29;20139;-95
2021/07/25 04:24:21;;;;;;;2.08;1.60;;;;;;;18.85;78.67;92208.41;4853701;29;20479;-94
2021/07/25 04:27:42;;;;;;;1.33;1.13;;;;;;;19.12;78.61;92245.78;4887506;29;20474;-93
2021/07/25 04:30:19;;;;;;;1.58;1.42;;;;;;;18.82;78.64;92205.66;4854873;29;20261;-95
2021/07/25 04:32:52;;;;;;;1.67;1.30;;;;;;;18.75;78.51;92195.63;4884096;29;20053;-94
2021/07/25 04:35:39;;;;;;;2.77;0.87;;;;;;;18.70;78.94;92187.94;4886445;29;20506;-94
2021/07/25 04:38:19;;;;;;;2.63;1.60;;;;;;;18.73;78.98;92205.81;4869585;29;20055;-94
2021/07/25 04:41:10;;;;;;;1.52;1.40;;;;;;;19.00;79.64;92249.28;4865834;29;20057;-94
2021/07/25 04:43:47;;;;;;;1.52;0.98;;;;;;;18.99;79.69;92249.66;4869189;29;20491;-94
2021/07/25 04:46:52;;;;;;;1.77;1.33;;;;;;;18.67;80.02;92209.84;4871095;29;20052;-95
2021/07/25 04:50:04;;;;;;;0.73;0.73;;;;;;;18.78;79.74;92226.81;4904117;29;20112;-95
2021/07/25 04:53:01;;;;;;;2.85;1.83;;;;;;;18.64;79.83;92203.38;4867195;29;20506;-93
2021/07/25 04:55:43;;;;;;;3.38;1.20;;;;;;;18.64;79.71;92199.91;4870783;29;20072;-93
2021/07/25 05:06:24;;;;;;;2.08;1.77;;;;;;;18.99;79.21;92250.41;4895276;29;20132;-96
2021/07/25 05:09:31;;;;;;;2.65;1.55;;;;;;;19.02;78.95;92251.59;4882370;29;20064;-96
2021/07/25 05:13:29;;;;;;;2.58;1.60;;;;;;;18.77;79.22;92208.56;4877322;29;20059;-95
2021/07/25 05:16:15;;;;;;;0.95;0.85;;;;;;;18.83;79.35;92220.47;4886120;29;20071;-95
2021/07/25 05:19:58;;;;;;;;;;;;;;;;;;;;;
2021/07/25 05:23:32;;;;;;;;;;;;;;;;;;;;;
2021/07/25 05:26:32;;;;;;;1.02;0.73;;;;;;;18.97;78.54;92222.69;4891069;29;20052;-96
2021/07/25 05:29:38;;;;;;;1.73;1.15;;;;;;;19.11;78.51;92238.91;4895111;29;20052;-96
2021/07/25 05:36:02;;;;;;;0.80;0.77;;;;;;;19.31;77.89;92232.53;4913779;23;20083;-79
2021/07/25 05:38:28;;;;;;;2.25;1.60;;;;;;;19.42;77.45;92234.69;4904605;29;20056;-79
2021/07/25 05:40:53;;;;;;;1.50;1.23;;;;;;;19.52;77.27;92231.47;4875699;29;20053;-79
2021/07/25 05:43:19;;;;;;;1.85;1.33;;;;;;;19.61;76.85;92240.03;4877591;29;20041;-79
2021/07/25 05:45:45;;;;;;;2.25;1.30;;;;;;;19.69;75.43;92241.72;4882916;29;20056;-80
2021/07/25 05:48:10;;;;;;;1.63;1.25;;;;;;;19.68;75.84;92234.84;4868040;29;20064;-79
2021/07/25 05:50:36;;;;;;;1.38;1.23;;;;;;;19.71;76.54;92234.19;4869412;29;20064;-78
2021/07/25 05:53:03;;;;;;;2.20;1.55;;;;;;;19.59;75.86;92221.00;4883485;29;20044;-79
2021/07/25 05:55:32;;;;;;;1.52;1.25;;;;;;;19.60;76.44;92219.13;4855789;29;20272;-78
2021/07/25 05:57:59;;;;;;;5.50;1.83;;;;;;;19.44;76.84;92208.56;4884291;29;20044;-77
2021/07/25 06:00:25;;;;;;;0.73;0.60;;;;;;;19.43;77.08;92193.72;4865508;29;20396;-79
2021/07/25 06:02:59;;;;;;;0.88;0.70;;;;;;;19.53;76.99;92201.16;4845259;29;20069;-78
2021/07/25 06:05:34;;;;;;;1.80;1.08;;;;;;;19.59;77.13;92199.78;4877385;29;20045;-77
2021/07/25 06:08:01;;;;;;;1.80;1.23;;;;;;;19.72;76.57;92198.56;4878528;29;20491;-77
2021/07/25 06:10:28;;;;;;;4.47;1.92;;;;;;;19.82;77.24;92207.06;4874680;29;20057;-78
2021/07/25 06:12:56;;;;;;;3.33;1.85;;;;;;;19.72;76.74;92209.19;4876825;29;20316;-77
2021/07/25 06:15:23;;;;;;;3.95;1.95;;;;;;;19.78;76.96;92216.84;4875753;29;20052;-77
2021/07/25 06:17:50;;;;;;;1.95;1.15;;;;;;;19.87;75.75;92207.56;4863542;29;20496;-77
2021/07/25 06:20:15;;;;;;;2.85;1.65;;;;;;;19.48;78.04;92210.16;4877121;29;20444;-77
2021/07/25 06:22:45;;;;;;;3.65;2.50;;;;;;;19.47;78.08;92203.31;4869443;29;20041;-77
2021/07/25 06:25:12;;;;;;;3.00;1.92;;;;;;;19.49;78.32;92189.69;4876177;29;20048;-76
2021/07/25 06:27:39;;;;;;;1.23;1.02;;;;;;;19.43;78.61;92191.06;4859557;29;20076;-77
2021/07/25 06:30:06;;;;;;;5.43;1.65;;;;;;;19.46;78.82;92206.31;4872669;29;20081;-77
2021/07/25 06:33:00;;;;;;;1.20;0.73;;;;;;;19.41;79.37;92220.63;4849115;29;20056;-78
2021/07/25 06:35:44;;;;;;;1.23;1.08;;;;;;;19.34;79.60;92205.34;4866195;29;20061;-75
2021/07/25 06:38:12;;;;;;;1.98;1.77;;;;;;;19.28;79.55;92182.06;4875478;29;20457;-79
2021/07/25 06:40:40;;;;;;;2.30;1.88;;;;;;;19.29;79.53;92199.50;4865383;29;20041;-77
2021/07/25 06:43:06;;;;;;;1.38;1.08;;;;;;;19.18;79.85;92201.94;4867490;29;20399;-78
2021/07/25 06:45:33;;;;;;;1.83;1.40;;;;;;;19.09;80.25;92210.09;4873127;29;20045;-78
2021/07/25 06:47:59;;;;;;;3.85;2.78;;;;;;;18.99;80.99;92212.50;4868623;29;20072;-78
2021/07/25 06:50:27;;;;;;;3.22;2.03;;;;;;;19.02;80.87;92209.16;4875464;29;20065;-76
2021/07/25 06:52:54;;;;;;;1.77;1.45;;;;;;;19.04;80.74;92206.94;4868736;29;20487;-76
2021/07/25 06:55:24;;;;;;;2.72;1.95;;;;;;;19.06;80.74;92217.97;4861338;29;20046;-77
2021/07/25 06:57:50;;;;;;;1.98;1.15;;;;;;;19.05;80.77;92219.06;4858742;29;20072;-77
2021/07/25 07:00:16;;;;;;;2.70;2.13;;;;;;;19.05;80.98;92219.06;4863523;29;20154;-77
2021/07/25 07:02:46;;;;;;;2.58;1.88;;;;;;;19.02;80.79;92225.84;4871294;29;20380;-77
2021/07/25 07:05:12;;;;;;;2.22;1.92;;;;;;;19.02;80.94;92233.03;4867310;29;20126;-76
2021/07/25 07:07:37;;;;;;;2.75;1.95;;;;;;;19.02;81.12;92230.38;4847596;29;20049;-76
2021/07/25 07:10:03;;;;;;;2.05;1.38;;;;;;;19.02;81.01;92235.69;4860643;29;20543;-77
2021/07/25 07:12:29;;;;;;;1.10;0.82;;;;;;;19.01;81.19;92239.47;4872219;29;20590;-79
2021/07/25 07:14:56;;;;;;;1.63;1.23;;;;;;;18.96;80.98;92243.16;4878021;29;20491;-77
2021/07/25 07:17:22;;;;;;;2.75;2.17;;;;;;;18.95;80.89;92243.47;4876965;29;20053;-77
2021/07/25 07:19:48;;;;;;;1.83;1.33;;;;;;;18.93;81.03;92249.13;4869103;29;20049;-77
2021/07/25 07:22:30;;;;;;;4.50;2.20;;;;;;;18.90;81.33;92255.88;4871736;29;20507;-77
2021/07/25 07:24:56;;;;;;;;;;;;;;;18.90;81.25;92258.53;4864543;29;20479;-78
2021/07/25 07:27:23;;;;;;;2.97;2.38;;;;;;;18.90;81.16;92265.72;4872267;29;19940;-78
2021/07/25 07:29:49;;;;;;;1.38;1.27;;;;;;;18.89;81.85;92269.47;4871461;29;20044;-77
2021/07/25 07:32:14;;;;;;;2.17;1.75;;;;;;;18.86;81.50;92270.94;4855681;29;20452;-76
2021/07/25 07:34:40;;;;;;;3.40;1.42;;;;;;;18.87;81.67;92272.50;4873970;29;20113;-79
2021/07/25 07:37:06;;;;;;;3.08;1.80;;;;;;;18.89;82.17;92264.97;4875055;29;20128;-78
2021/07/25 07:39:32;;;;;;;2.75;2.03;;;;;;;18.88;81.81;92273.25;4866633;29;20053;-77
2021/07/25 07:41:57;;;;;;;1.08;0.98;;;;;;;18.88;81.42;92274.00;4861404;29;20067;-78
2021/07/25 07:44:23;;;;;;;3.40;1.80;;;;;;;18.88;82.34;92279.31;4859444;29;20046;-78
2021/07/25 07:46:49;;;;;;;2.28;1.45;;;;;;;18.90;82.25;92289.59;4870197;29;20595;-78
2021/07/25 07:49:15;;;;;;;1.75;1.33;;;;;;;18.89;82.28;92296.00;4878232;29;20350;-77
2021/07/25 07:51:40;;;;;;;3.22;1.73;;;;;;;18.84;81.72;92283.75;4861261;29;20054;-78
2021/07/25 07:54:06;;;;;;;2.10;1.38;;;;;;;18.89;81.35;92278.22;4859769;29;20064;-79
2021/07/25 07:56:35;;;;;;;2.30;1.65;;;;;;;18.92;81.51;92271.47;4876952;29;20052;-79
2021/07/25 07:59:02;;;;;;;2.97;1.95;;;;;;;18.92;81.32;92274.13;4877378;29;20097;-78
2021/07/25 08:01:28;;;;;;;3.22;1.88;;;;;;;18.90;81.60;92271.78;4845833;29;20109;-77
2021/07/25 08:03:53;;;;;;;1.35;1.08;;;;;;;18.88;81.10;92268.72;4860758;29;20051;-78
2021/07/25 08:06:19;;;;;;;1.40;1.13;;;;;;;18.87;81.79;92266.44;4875699;29;20057;-78
2021/07/25 08:08:45;;;;;;;1.95;1.13;;;;;;;18.94;80.70;92261.28;4865937;29;20128;-77
2021/07/25 08:11:10;;;;;;;1.38;1.27;;;;;;;18.83;81.78;92239.03;4871367;29;20500;-78
2021/07/25 08:13:36;;;;;;;1.05;0.93;;;;;;;18.73;82.23;92217.22;4865986;29;20058;-77
2021/07/25 08:16:02;;;;;;;3.33;2.30;;;;;;;18.75;82.29;92198.28;4848521;29;20045;-78
2021/07/25 08:18:27;;;;;;;1.98;0.95;;;;;;;18.77;82.75;92203.25;4871794;29;20474;-77
2021/07/25 08:20:53;;;;;;;3.10;1.65;;;;;;;18.54;84.98;92219.00;4850606;29;20074;-77
2021/07/25 08:23:19;;;;;;;3.28;1.23;;;;;;;18.54;85.15;92232.25;4866892;29;20145;-76
2021/07/25 08:25:44;;;;;;;2.08;1.63;;;;;;;18.56;84.94;92227.38;4867375;29;20049;-77
2021/07/25 08:28:10;;;;;;;1.02;0.90;;;;;;;18.51;85.43;92229.16;4875030;29;20049;-76
2021/07/25 08:30:36;;;;;;;1.63;1.30;;;;;;;18.62;85.46;92245.34;4853146;29;20045;-76
2021/07/25 08:33:02;;;;;;;2.00;1.52;;;;;;;18.68;85.01;92238.66;4873088;29;20094;-77
2021/07/25 08:35:28;;;;;;;2.45;1.80;;;;;;;18.76;84.56;92247.56;4864286;29;20053;-78
2021/07/25 08:37:53;;;;;;;1.83;1.30;;;;;;;18.83;84.38;92249.66;4849041;29;20053;-77
2021/07/25 08:40:22;;;;;;;2.13;1.92;;;;;;;18.91;82.09;92262.75;4862405;29;20499;-78
2021/07/25 08:43:05;;;;;;;1.60;1.50;;;;;;;18.89;83.56;92270.28;4875930;29;20055;-77
2021/07/25 08:45:42;;;;;;;1.63;1.23;;;;;;;18.93;83.86;92273.75;4863001;29;20041;-78
2021/07/25 08:48:14;;;;;;;3.20;1.75;;;;;;;18.98;82.87;92267.44;4858205;29;20041;-76
2021/07/25 08:50:45;;;;;;;1.05;0.90;;;;;;;18.92;82.76;92261.63;4864350;29;20041;-77
2021/07/25 08:53:16;;;;;;;1.95;1.52;;;;;;;18.92;82.28;92252.91;4868470;29;20052;-77
2021/07/25 08:55:42;;;;;;;2.33;1.52;;;;;;;18.93;82.08;92241.94;4859231;29;20056;-77
2021/07/25 08:58:11;;;;;;;2.20;1.35;;;;;;;19.00;82.36;92248.50;4879031;29;20040;-77
2021/07/25 09:00:37;;;;;;;2.85;1.60;;;;;;;19.03;82.87;92243.31;4878366;29;20120;-77
2021/07/25 09:03:07;;;;;;;3.33;2.33;;;;;;;18.99;82.23;92226.53;4853411;29;20136;-78
2021/07/25 09:05:33;;;;;;;1.95;1.55;;;;;;;19.05;82.64;92249.03;4881105;29;20041;-78
2021/07/25 09:08:01;;;;;;;2.70;1.95;;;;;;;19.08;82.96;92263.50;4871238;29;20041;-79
2021/07/25 09:10:27;;;;;;;3.65;2.13;;;;;;;19.10;82.79;92277.19;4883655;29;20044;-79
2021/07/25 09:12:55;;;;;;;1.45;1.15;;;;;;;19.09;83.54;92271.13;4881900;29;20085;-78
2021/07/25 09:15:29;;;;;;;2.22;1.50;;;;;;;19.12;83.64;92251.84;4879077;29;20132;-81
2021/07/25 09:17:57;;;;;;;1.88;1.50;;;;;;;19.19;83.11;92248.59;4880759;29;20064;-80
2021/07/25 09:20:30;;;;;;;2.53;1.63;;;;;;;19.29;82.66;92266.63;4881603;29;20033;-79
2021/07/25 09:22:59;;;;;;;2.28;1.67;;;;;;;19.43;82.96;92281.31;4880178;29;20049;-78
2021/07/25 09:25:25;;;;;;;3.65;1.65;;;;;;;19.55;82.61;92275.91;4880069;29;20048;-79
2021/07/25 09:27:56;;;;;;;1.88;1.27;;;;;;;19.70;81.61;92269.03;4861526;29;20046;-81
2021/07/25 09:30:24;;;;;;;2.85;2.28;;;;;;;19.81;81.31;92275.34;4867048;29;20453;-79
2021/07/25 09:32:50;;;;;;;2.33;1.63;;;;;;;19.88;80.61;92272.06;4879418;29;20049;-77
2021/07/25 09:35:26;;;;;;;1.90;1.52;;;;;;;19.97;80.02;92269.97;4846147;29;20563;-77
2021/07/25 09:37:53;;;;;;;2.28;1.75;;;;;;;20.06;79.34;92270.53;4859480;29;20132;-77
2021/07/25 09:40:28;;;;;;;1.50;1.25;;;;;;;20.18;79.89;92273.03;4843262;29;20029;-77
2021/07/25 09:43:08;;;;;;;1.90;1.67;;;;;;;20.29;78.53;92283.88;4847726;29;20049;-78
2021/07/25 09:48:30;;;;;;;3.03;1.92;;;;;;;20.83;76.89;92284.09;4859233;29;20099;-78
2021/07/25 09:50:58;;;;;;;3.45;2.35;;;;;;;21.32;76.25;92284.13;4860947;29;20073;-76
2021/07/25 09:53:41;;;;;;;3.53;2.25;;;;;;;21.45;73.73;92281.28;4859980;29;20499;-77
2021/07/25 09:56:18;;;;;;;1.38;1.27;;;;;;;21.36;73.86;92292.16;4841339;29;20046;-76
2021/07/25 09:58:45;;;;;;;2.88;2.08;;;;;;;22.16;72.51;92292.91;4858643;29;20053;-77
2021/07/25 10:01:10;;;;;;;6.30;2.70;;;;;;;22.88;71.79;92280.34;4855860;29;20037;-78
2021/07/25 10:03:36;;;;;;;2.35;1.38;;;;;;;22.95;66.89;92274.31;4855817;29;20084;-78
2021/07/25 10:06:22;;;;;;;5.07;1.63;;;;;;;23.10;63.95;92269.84;4856325;29;20048;-78
2021/07/25 10:09:06;;;;;;;0.80;0.80;;;;;;;23.27;67.83;92274.56;4850729;29;20073;-77
2021/07/25 10:11:33;;;;;;;1.10;0.85;;;;;;;22.36;72.19;92268.75;4857155;29;20049;-77
2021/07/25 10:13:59;;;;;;;1.02;0.73;;;;;;;22.31;74.60;92264.50;4854170;29;20084;-77
2021/07/25 10:16:25;;;;;;;1.50;1.13;;;;;;;23.21;68.96;92263.47;4840986;29;20550;-77
2021/07/25 10:18:53;;;;;;;4.07;2.90;;;;;;;23.69;68.05;92262.66;4859910;29;20065;-80
2021/07/25 10:21:20;;;;;;;4.68;2.25;;;;;;;23.94;65.82;92270.81;4841850;29;20037;-78
2021/07/25 10:23:55;;;;;;;1.05;0.98;;;;;;;23.26;69.16;92275.72;4841966;29;20169;-77
2021/07/25 10:26:28;;;;;;;3.47;1.33;;;;;;;23.04;72.40;92291.56;4857407;29;20072;-78
2021/07/25 10:28:55;;;;;;;1.25;1.15;;;;;;;21.87;77.87;92293.66;4854884;29;20512;-78
2021/07/25 10:31:26;;;;;;;2.17;1.45;;;;;;;22.26;74.02;92298.75;4851791;29;20048;-77
2021/07/25 10:33:53;;;;;;;2.45;1.77;;;;;;;22.21;75.85;92305.94;4840432;29;20563;-77
2021/07/25 10:36:20;;;;;;;1.45;1.13;;;;;;;21.17;77.54;92309.00;4854893;29;20465;-77
2021/07/25 10:38:47;;;;;;;1.17;1.10;;;;;;;21.68;75.56;92300.63;4836831;29;20056;-77
2021/07/25 10:41:21;;;;;;;2.25;1.75;;;;;;;22.28;72.70;92304.47;4840876;29;20059;-77
2021/07/25 10:43:47;;;;;;;2.95;1.65;;;;;;;22.61;70.62;92293.81;4859177;29;20074;-78
2021/07/25 10:46:23;;;;;;;3.72;1.60;;;;;;;23.36;68.71;92288.38;4860838;29;20136;-77
2021/07/25 10:48:58;;;;;;;1.55;1.38;;;;;;;23.58;65.10;92286.63;4853830;29;20080;-77
2021/07/25 10:51:24;;;;;;;3.15;2.22;;;;;;;22.96;69.90;92278.50;4852323;29;20046;-77
2021/07/25 10:53:50;;;;;;;3.53;1.63;;;;;;;23.10;68.16;92278.63;4855330;29;20101;-77
2021/07/25 10:56:37;;;;;;;2.40;1.70;;;;;;;23.51;67.45;92280.44;4855307;29;20056;-77
2021/07/25 10:59:02;;;;;;;1.95;1.48;;;;;;;23.48;65.69;92284.63;4853028;29;20042;-74
2021/07/25 11:01:44;;;;;;;2.88;1.85;;;;;;;23.55;65.47;92283.91;4850840;29;20068;-74
2021/07/25 11:04:09;;;;;;;3.13;1.43;;;;;;;23.13;67.08;92272.56;4854837;29;20213;-74
2021/07/25 11:06:37;;;;;;;4.60;2.03;;;;;;;23.89;65.71;92282.63;4858768;29;20602;-74
2021/07/25 11:09:03;;;;;;;3.33;2.38;;;;;;;23.69;63.31;92276.78;4858352;29;20057;-74
2021/07/25 11:11:35;;;;;;;3.08;2.17;;;;;;;23.52;63.56;92282.00;4857193;29;20068;-74
2021/07/25 11:14:02;;;;;;;2.42;1.70;;;;;;;23.46;66.64;92287.69;4857918;29;20116;-75
2021/07/25 11:16:29;;;;;;;1.92;1.45;;;;;;;22.98;69.08;92276.97;4841294;29;20052;-74
2021/07/25 11:19:04;;;;;;;1.73;1.45;;;;;;;22.88;70.06;92283.00;4857802;29;20053;-74
2021/07/25 11:21:40;;;;;;;1.90;1.30;;;;;;;22.05;72.93;92294.66;4853130;29;20049;-74
2021/07/25 11:24:18;;;;;;;2.67;1.90;;;;;;;22.44;71.93;92286.38;4849198;29;20054;-74
2021/07/25 11:26:44;;;;;;;1.77;1.40;;;;;;;22.84;70.55;92274.97;4843335;29;20049;-74
2021/07/25 11:29:15;;;;;;;1.13;0.98;;;;;;;22.86;68.95;92279.94;4852068;29;20579;-74
2021/07/25 11:31:43;;;;;;;4.22;2.00;;;;;;;23.13;67.74;92277.91;4837857;29;20057;-74
2021/07/25 11:36:38;;;;;;;2.03;1.40;;;;;;;23.85;65.13;92273.84;4851860;29;20057;-75
2021/07/25 11:39:06;;;;;;;1.90;1.48;;;;;;;23.64;63.21;92269.13;4850625;29;20081;-74
2021/07/25 11:41:37;;;;;;;1.17;0.98;;;;;;;23.53;61.38;92262.16;4855115;29;20072;-74
2021/07/25 11:44:09;;;;;;;3.53;2.05;;;;;;;23.58;62.69;92264.50;4840857;29;20057;-74
2021/07/25 11:46:37;;;;;;;;;;;;;;;23.26;62.54;92263.13;4852850;29;20528;-74
2021/07/25 11:49:05;;;;;;;1.23;1.13;;;;;;;23.26;63.92;92265.03;4850809;29;19916;-74
2021/07/25 11:51:32;;;;;;;3.20;1.05;;;;;;;22.98;65.60;92260.97;4852702;29;20056;-74
2021/07/25 11:53:58;;;;;;;2.88;1.77;;;;;;;23.22;64.39;92253.56;4841128;29;20584;-74
2021/07/25 11:56:24;;;;;;;3.05;1.65;;;;;;;22.96;63.76;92251.81;4849209;29;20870;-74
2021/07/25 11:59:01;;;;;;;1.13;0.93;;;;;;;22.72;64.19;92253.09;4840077;29;20042;-74
2021/07/25 12:01:26;;;;;;;1.58;1.20;;;;;;;22.87;64.38;92260.13;4833800;29;20541;-74
2021/07/25 12:03:52;;;;;;;1.88;1.38;;;;;;;22.53;64.99;92260.19;4858066;29;20049;-74
2021/07/25 12:06:19;;;;;;;0.65;0.65;;;;;;;22.54;65.17;92253.72;4850075;29;20049;-74
2021/07/25 12:09:06;;;;;;;3.33;1.58;;;;;;;22.30;64.83;92255.00;4842612;29;20038;-75
2021/07/25 12:11:33;;;;;;;2.60;1.55;;;;;;;22.47;65.74;92250.97;4852103;29;20505;-74
2021/07/25 12:13:59;;;;;;;0.82;0.82;;;;;;;22.29;65.66;92248.13;4847589;29;20651;-74
2021/07/25 12:16:25;;;;;;;4.60;2.13;;;;;;;22.37;66.50;92256.97;4850470;29;20149;-74
2021/07/25 12:18:51;;;;;;;1.60;1.23;;;;;;;22.33;66.72;92259.59;4858273;29;20496;-75
2021/07/25 12:21:31;;;;;;;1.77;1.02;;;;;;;22.31;67.24;92253.09;4854771;29;20044;-75
2021/07/25 12:23:58;;;;;;;1.27;1.08;;;;;;;22.20;66.96;92253.72;4853054;29;20054;-74
2021/07/25 12:26:40;;;;;;;2.22;1.58;;;;;;;21.92;68.37;92246.16;4842212;29;20508;-76
2021/07/25 12:29:33;;;;;;;5.80;2.58;;;;;;;21.52;69.77;92244.09;4854875;29;20077;-77
2021/07/25 12:31:59;;;;;;;1.92;1.25;;;;;;;21.42;69.50;92235.63;4835573;29;20133;-77
2021/07/25 12:34:25;;;;;;;2.50;1.45;;;;;;;21.48;69.98;92235.28;4857419;29;20563;-77
2021/07/25 12:36:50;;;;;;;1.38;1.17;;;;;;;21.34;70.28;92230.53;4857492;29;20145;-77
2021/07/25 12:39:17;;;;;;;2.88;1.30;;;;;;;21.37;68.77;92222.59;4854663;29;20077;-77
2021/07/25 12:41:43;;;;;;;1.75;1.45;;;;;;;21.29;68.93;92220.19;4852421;29;20053;-77
2021/07/25 12:44:09;;;;;;;2.33;1.73;;;;;;;21.05;69.65;92226.66;4843757;29;20053;-77
2021/07/25 12:46:34;;;;;;;1.00;0.85;;;;;;;20.88;69.11;92215.41;4858560;29;20087;-77
2021/07/25 12:49:04;;;;;;;1.15;0.95;;;;;;;20.87;71.16;92205.88;4844010;29;20053;-77
2021/07/25 12:51:41;;;;;;;0.95;0.82;;;;;;;20.63;71.08;92200.94;4860553;29;20060;-77
2021/07/25 12:54:07;;;;;;;2.47;1.58;;;;;;;20.48;72.13;92200.66;4859340;29;20291;-77
2021/07/25 12:56:34;;;;;;;1.40;1.13;;;;;;;20.57;73.55;92209.22;4838322;29;20053;-77
2021/07/25 12:59:03;;;;;;;1.65;1.25;;;;;;;20.56;74.11;92197.03;4840915;29;20053;-76
2021/07/25 13:04:00;;;;;;;2.63;1.30;;;;;;;20.85;72.60;92192.19;4859400;29;20173;-77
2021/07/25 13:06:30;;;;;;;1.52;1.27;;;;;;;21.04;71.68;92199.31;4843706;29;20537;-77
2021/07/25 13:09:01;;;;;;;1.30;0.77;;;;;;;21.08;71.28;92194.03;4854977;29;20045;-77
2021/07/25 13:11:28;;;;;;;2.92;1.92;;;;;;;21.12;71.04;92192.19;4842691;29;20057;-77
2021/07/25 13:14:01;;;;;;;9.13;1.27;;;;;;;20.93;70.98;92199.13;4846390;29;20045;-78
2021/07/25 13:16:26;;;;;;;1.23;1.08;;;;;;;20.93;72.04;92214.34;4857499;29;20137;-77
2021/07/25 13:18:57;;;;;;;2.78;1.35;;;;;;;21.08;71.09;92202.78;4857914;29;20182;-77
2021/07/25 13:21:24;;;;;;;0.95;0.85;;;;;;;20.90;70.68;92194.53;4860476;29;20127;-76
2021/07/25 13:23:50;;;;;;;1.42;0.95;;;;;;;20.84;70.67;92182.66;4859211;29;20167;-76
2021/07/25 13:26:17;;;;;;;1.45;0.98;;;;;;;20.81;71.14;92167.41;4858863;29;20387;-77
2021/07/25 13:28:44;;;;;;;6.45;1.17;;;;;;;20.73;70.17;92163.09;4856872;29;20045;-76
2021/07/25 13:31:09;;;;;;;1.80;1.30;;;;;;;20.75;71.54;92168.84;4861097;29;20075;-77
2021/07/25 13:33:36;;;;;;;1.67;1.27;;;;;;;20.53;72.96;92189.72;4823764;29;20149;-77
2021/07/25 13:36:04;;;;;;;1.35;1.15;;;;;;;20.50;74.47;92206.41;4832294;29;20438;-78